Time;durP1;ratioP1;P1;durP2;ratioP2;P2;SDS_P1;SDS_P2;PMS_P1;PMS_P2;Temp;Humidity;BMP_temperature;BMP_pressure;BME280_temperature;BME280_humidity;BME280_pressure;Samples;Min_cycle;Max_cycle;Signal;HPM_P1;HPM_P2
2021/11/24 00:04:52;;;;;;;44.55;23.30;;;;;;;4.00;86.99;99970.08;4158058;84;21126;-82
2021/11/24 00:10:53;;;;;;;41.92;23.10;;;;;;;4.03;87.00;99962.69;4163613;84;21062;-81
2021/11/24 00:16:55;;;;;;;46.25;23.67;;;;;;;4.05;87.03;99961.84;4159360;84;21030;-82
2021/11/24 00:22:56;;;;;;;40.65;21.97;;;;;;;4.06;87.08;99967.48;4158144;84;21066;-82
2021/11/24 00:28:57;;;;;;;39.90;22.52;;;;;;;4.06;87.15;99968.84;4161918;84;21063;-82
2021/11/24 00:34:58;;;;;;;37.10;21.87;;;;;;;4.05;87.21;99963.19;4156171;84;21051;-81
2021/11/24 00:41:00;;;;;;;38.17;21.35;;;;;;;4.02;87.37;99960.55;4161342;84;21043;-83
2021/11/24 00:47:02;;;;;;;36.75;20.10;;;;;;;4.00;87.39;99961.95;4162005;84;21071;-82
2021/11/24 00:53:03;;;;;;;36.77;19.80;;;;;;;4.02;87.58;99963.81;4161800;84;21520;-81
2021/11/24 00:59:05;;;;;;;36.75;18.77;;;;;;;4.00;87.61;99964.66;4160766;84;21079;-80
2021/11/24 01:05:07;;;;;;;34.73;21.12;;;;;;;3.97;87.62;99963.37;4160915;84;21027;-82
2021/11/24 01:11:08;;;;;;;35.20;20.08;;;;;;;3.94;87.79;99960.48;4165490;84;21011;-82
2021/11/24 01:17:10;;;;;;;32.93;19.20;;;;;;;3.95;88.11;99966.13;4165394;84;21409;-81
2021/11/24 01:23:11;;;;;;;31.35;17.12;;;;;;;3.99;88.21;99965.23;4159591;84;21043;-83
2021/11/24 01:29:12;;;;;;;32.10;19.65;;;;;;;4.00;88.57;99968.73;4161604;84;21034;-83
2021/11/24 01:35:14;;;;;;;42.95;22.07;;;;;;;3.96;88.68;99960.98;4158517;84;21298;-83
2021/11/24 01:41:16;;;;;;;33.50;20.40;;;;;;;3.87;88.96;99957.42;4155601;84;21047;-83
2021/11/24 01:47:17;;;;;;;36.15;20.68;;;;;;;3.88;89.28;99953.59;4165830;84;21071;-82
2021/11/24 01:53:19;;;;;;;37.93;22.20;;;;;;;3.84;89.28;99960.17;4142629;84;21066;-83
2021/11/24 01:59:21;;;;;;;36.17;20.43;;;;;;;3.81;89.48;99954.55;4159828;84;21078;-83
2021/11/24 02:05:23;;;;;;;32.48;20.08;;;;;;;3.77;89.99;99956.30;4160169;84;21468;-83
2021/11/24 02:11:25;;;;;;;32.20;18.52;;;;;;;3.74;90.21;99955.55;4163510;83;21058;-83
2021/11/24 02:17:26;;;;;;;30.65;16.93;;;;;;;3.73;90.07;99949.33;4163202;84;21023;-83
2021/11/24 02:23:28;;;;;;;29.02;17.30;;;;;;;3.73;90.42;99952.03;4161012;84;21071;-83
2021/11/24 02:29:30;;;;;;;26.35;16.02;;;;;;;3.67;90.31;99940.27;4165262;84;21075;-82
2021/11/24 02:35:32;;;;;;;25.97;15.60;;;;;;;3.64;90.25;99944.41;4004979;87;21045;-81
2021/11/24 02:41:35;;;;;;;24.32;15.20;;;;;;;3.58;90.74;99941.57;4161517;84;21145;-82
2021/11/24 02:47:37;;;;;;;27.85;16.15;;;;;;;3.59;90.95;99939.64;4162398;83;22249;-82
2021/11/24 02:53:38;;;;;;;25.75;16.15;;;;;;;3.63;91.26;99929.27;4177803;83;21020;-82
2021/11/24 02:59:40;;;;;;;28.30;17.02;;;;;;;3.66;91.32;99935.43;4185544;83;21023;-81
2021/11/24 03:05:41;;;;;;;28.92;16.10;;;;;;;3.67;91.28;99937.56;4184705;83;21075;-82
2021/11/24 03:18:02;;;;;;;26.82;15.08;;;;;;;3.64;91.60;99934.92;4537849;77;22936;-83
2021/11/24 03:24:04;;;;;;;26.12;15.70;;;;;;;3.57;91.69;99933.18;4489687;78;21481;-82
2021/11/24 03:37:06;;;;;;;25.05;15.30;;;;;;;3.63;91.65;99940.65;4490309;78;21062;-81
2021/11/24 03:43:36;;;;;;;29.32;17.05;;;;;;;3.53;91.75;99936.27;4490341;78;21014;-82
2021/11/24 03:49:39;;;;;;;29.25;17.17;;;;;;;3.45;92.16;99930.77;4472837;78;20979;-83
2021/11/24 03:55:41;;;;;;;28.27;16.85;;;;;;;3.40;92.35;99930.91;4484618;78;20979;-82
2021/11/24 04:01:42;;;;;;;25.43;15.90;;;;;;;3.37;92.58;99918.77;4407403;79;21041;-82
2021/11/24 04:07:44;;;;;;;25.60;14.75;;;;;;;3.43;92.64;99918.11;4423887;79;21003;-82
2021/11/24 04:13:46;;;;;;;26.62;15.30;;;;;;;3.45;92.92;99918.59;4387366;79;21599;-82
2021/11/24 04:19:48;;;;;;;25.00;15.03;;;;;;;3.50;92.71;99913.06;4332669;80;21042;-83
2021/11/24 04:25:50;;;;;;;24.30;13.80;;;;;;;3.46;92.96;99906.67;4320615;80;21058;-83
2021/11/24 04:31:52;;;;;;;21.52;13.18;;;;;;;3.43;93.21;99895.88;4378621;79;21091;-82
2021/11/24 04:37:53;;;;;;;20.08;13.75;;;;;;;3.41;93.44;99898.12;4380475;79;21708;-83
2021/11/24 04:43:54;;;;;;;23.85;13.32;;;;;;;3.44;93.54;99892.09;4370377;79;21020;-83
2021/11/24 04:49:56;;;;;;;20.25;12.80;;;;;;;3.43;93.34;99893.75;4396138;79;21546;-82
2021/11/24 04:55:57;;;;;;;25.88;14.85;;;;;;;3.42;93.63;99894.84;4386819;79;21028;-83
2021/11/24 05:02:02;;;;;;;24.57;14.07;;;;;;;3.36;93.78;99886.59;4382499;79;21035;-83
2021/11/24 07:04:15;;;;;;;20.90;12.80;;;;;;;3.27;95.68;99912.79;4663626;74;22817;-82
2021/11/24 07:10:16;;;;;;;18.90;11.85;;;;;;;3.29;95.11;99918.70;4492854;75;40205;-84
2021/11/24 07:16:18;;;;;;;20.57;12.70;;;;;;;3.34;95.26;99922.63;4433412;78;21013;-82
2021/11/24 07:22:19;;;;;;;20.32;12.98;;;;;;;3.44;95.17;99917.80;4443774;78;21001;-83
2021/11/24 07:28:24;;;;;;;19.70;12.28;;;;;;;3.49;95.18;99914.98;4424706;78;21049;-83
2021/11/24 07:34:25;;;;;;;21.82;14.03;;;;;;;3.56;95.05;99913.19;4431098;78;21066;-82
2021/11/24 07:40:28;;;;;;;21.35;13.48;;;;;;;3.67;95.23;99916.71;4428446;78;21017;-83
2021/11/24 07:53:36;;;;;;;18.42;11.22;;;;;;;3.83;94.91;99906.30;4388067;78;21981;-83
2021/11/24 07:59:40;;;;;;;22.50;13.40;;;;;;;3.92;94.94;99894.97;4421219;78;20986;-82
2021/11/24 08:05:42;;;;;;;23.20;14.28;;;;;;;4.00;94.59;99896.94;4391425;79;21005;-83
2021/11/24 08:11:43;;;;;;;21.57;13.32;;;;;;;4.09;94.42;99901.84;4391332;79;21018;-84
2021/11/24 08:17:45;;;;;;;18.60;11.03;;;;;;;4.20;94.28;99900.47;4389590;79;21601;-83
2021/11/24 08:23:46;;;;;;;20.52;11.78;;;;;;;4.40;94.19;99905.38;4385302;79;21042;-82
2021/11/24 08:29:47;;;;;;;18.52;11.60;;;;;;;4.56;93.73;99896.50;4385296;79;21065;-82
2021/11/24 08:36:11;;;;;;;17.65;10.32;;;;;;;4.65;93.45;99898.68;4389344;79;21064;-82
2021/11/24 08:42:13;;;;;;;17.35;9.15;;;;;;;4.70;93.23;99895.83;4391586;79;21033;-83
2021/11/24 08:48:15;;;;;;;17.95;9.90;;;;;;;4.70;92.79;99897.19;4414616;79;20999;-82
2021/11/24 08:54:16;;;;;;;18.87;9.80;;;;;;;4.76;92.52;99899.99;4387301;79;21064;-84
2021/11/24 09:00:21;;;;;;;17.27;9.98;;;;;;;4.83;92.34;99896.27;4376190;79;21022;-83
2021/11/24 09:06:22;;;;;;;15.80;9.78;;;;;;;4.93;92.21;99895.19;4388124;79;21057;-82
2021/11/24 09:13:07;;;;;;;16.80;10.13;;;;;;;4.98;91.02;99895.02;4392852;79;20994;-82
2021/11/24 09:19:08;;;;;;;14.63;8.53;;;;;;;5.09;91.59;99893.59;4384537;79;20994;-83
2021/11/24 09:25:14;;;;;;;12.33;8.13;;;;;;;5.26;91.14;99893.61;4386003;79;21017;-84
2021/11/24 09:31:17;;;;;;;12.83;6.90;;;;;;;5.38;91.02;99892.45;4386238;79;20954;-83
2021/11/24 09:44:48;;;;;;;13.03;6.55;;;;;;;5.41;89.61;99886.37;4380331;79;21021;-82
2021/11/24 09:50:50;;;;;;;9.93;6.20;;;;;;;5.45;88.96;99886.55;4386731;79;20982;-83
2021/11/24 09:56:53;;;;;;;9.13;4.85;;;;;;;5.56;88.80;99876.95;4388398;79;21076;-83
2021/11/24 10:02:57;;;;;;;10.03;4.90;;;;;;;5.61;88.34;99868.62;4422381;78;21571;-83
2021/11/24 10:08:59;;;;;;;8.35;5.20;;;;;;;5.63;87.78;99869.92;4436092;78;21566;-83
2021/11/24 10:15:02;;;;;;;6.08;3.90;;;;;;;5.71;87.50;99869.11;4426149;78;21018;-84
2021/11/24 10:21:09;;;;;;;5.85;2.95;;;;;;;5.70;84.23;99868.85;4425290;78;21363;-83
2021/11/24 10:27:13;;;;;;;8.20;3.45;;;;;;;5.72;85.60;99859.02;4445293;78;21006;-83
2021/11/24 10:33:19;;;;;;;7.80;3.58;;;;;;;5.64;84.88;99853.84;4416008;78;21006;-83
2021/11/24 10:39:22;;;;;;;7.53;3.50;;;;;;;5.69;84.90;99859.67;4436509;78;21069;-83
2021/11/24 10:45:23;;;;;;;6.60;3.47;;;;;;;5.74;84.12;99845.92;4425045;78;21040;-84
2021/11/24 10:51:44;;;;;;;7.22;3.08;;;;;;;5.84;83.71;99840.20;4420412;78;21002;-83
2021/11/24 10:58:05;;;;;;;6.12;2.85;;;;;;;5.94;82.65;99831.13;4433482;78;21053;-81
2021/11/24 11:04:08;;;;;;;5.62;2.87;;;;;;;5.97;81.86;99818.80;4417784;78;21079;-83
2021/11/24 11:10:15;;;;;;;5.37;3.37;;;;;;;5.84;80.09;99813.80;4430764;78;21606;-83
2021/11/24 11:16:16;;;;;;;3.45;1.90;;;;;;;5.89;78.26;99809.55;4426206;78;21041;-83
2021/11/24 11:22:21;;;;;;;7.45;3.58;;;;;;;5.91;78.06;99799.17;4432040;78;21025;-83
2021/11/24 11:28:31;;;;;;;3.92;2.12;;;;;;;5.97;78.34;99800.58;4427426;78;21501;-83
2021/11/24 11:34:36;;;;;;;4.28;3.12;;;;;;;6.06;77.06;99786.39;4432689;78;21065;-84
2021/11/24 11:40:45;;;;;;;4.15;2.92;;;;;;;6.10;78.41;99786.00;4402810;78;20994;-82
2021/11/24 11:46:52;;;;;;;4.75;2.87;;;;;;;6.02;77.18;99773.78;4428509;78;21050;-82
2021/11/24 11:53:26;;;;;;;4.58;2.65;;;;;;;5.87;76.05;99768.90;4352463;80;21039;-82
2021/11/24 12:00:05;;;;;;;4.92;2.70;;;;;;;5.93;76.27;99762.97;4397473;79;21386;-82
2021/11/24 12:06:19;;;;;;;5.40;3.12;;;;;;;5.99;74.45;99754.05;4410001;79;21628;-81
2021/11/24 12:12:34;;;;;;;5.40;2.65;;;;;;;5.90;74.28;99747.87;4424709;79;21081;-83
2021/11/24 12:18:35;;;;;;;6.30;3.83;;;;;;;5.87;73.36;99745.80;4416123;79;21018;-84
2021/11/24 12:24:40;;;;;;;5.70;3.05;;;;;;;5.95;74.40;99742.25;4377080;79;21029;-85
2021/11/24 12:30:53;;;;;;;4.25;2.85;;;;;;;5.90;72.35;99740.48;4404645;78;21522;-82
2021/11/24 12:36:55;;;;;;;4.60;3.10;;;;;;;5.86;72.96;99733.31;4408079;79;21855;-82
2021/11/24 12:42:59;;;;;;;4.60;2.70;;;;;;;5.85;71.44;99732.55;4414220;79;22211;-83
2021/11/24 12:49:21;;;;;;;5.60;2.55;;;;;;;5.79;72.00;99731.09;4405628;79;21078;-82
2021/11/24 12:55:24;;;;;;;7.58;4.20;;;;;;;5.70;72.20;99727.59;4394526;79;21035;-84
2021/11/24 13:01:31;;;;;;;5.83;3.62;;;;;;;5.62;71.87;99730.36;4407096;79;21026;-83
2021/11/24 13:07:34;;;;;;;6.45;3.60;;;;;;;5.53;71.85;99735.02;4435204;79;21485;-83
2021/11/24 13:13:38;;;;;;;5.95;3.90;;;;;;;5.53;72.36;99730.37;4437980;79;20975;-84
2021/11/24 13:19:55;;;;;;;8.48;5.03;;;;;;;5.39;70.18;99732.48;4432179;79;21105;-84
2021/11/24 13:25:57;;;;;;;13.95;5.83;;;;;;;5.26;70.74;99729.96;4442511;79;21030;-83
2021/11/24 13:32:14;;;;;;;9.48;5.00;;;;;;;5.21;71.95;99724.14;4453848;79;21105;-85
2021/11/24 13:38:33;;;;;;;11.63;7.35;;;;;;;5.28;72.41;99727.15;4432721;79;21799;-83
2021/11/24 13:44:54;;;;;;;12.20;5.95;;;;;;;5.27;72.12;99722.85;4442535;79;21418;-83
2021/11/24 13:51:07;;;;;;;9.43;5.55;;;;;;;5.19;72.19;99722.30;4453387;79;20986;-83
2021/11/24 13:57:10;;;;;;;7.42;4.62;;;;;;;5.13;71.14;99718.72;4431505;79;21013;-83
2021/11/24 14:03:12;;;;;;;8.83;4.97;;;;;;;5.06;71.73;99714.34;4454636;79;21610;-82
2021/11/24 14:09:30;;;;;;;7.35;4.37;;;;;;;5.10;72.67;99716.09;4375033;80;21036;-82
2021/11/24 14:15:32;;;;;;;6.80;4.50;;;;;;;5.13;72.48;99712.73;4454942;79;21054;-81
2021/11/24 14:21:57;;;;;;;8.33;3.98;;;;;;;5.08;72.62;99703.40;4460525;79;21046;-82
2021/11/24 14:28:04;;;;;;;8.88;5.33;;;;;;;5.08;73.79;99704.76;4339307;79;21065;-82
2021/11/24 14:34:06;;;;;;;9.10;5.28;;;;;;;4.97;72.83;99696.70;4437082;79;21033;-82
2021/11/24 14:46:44;;;;;;;13.35;7.37;;;;;;;4.71;72.86;99683.73;4445843;79;21574;-82
2021/11/24 14:52:48;;;;;;;18.27;8.10;;;;;;;4.51;72.68;99687.08;4443394;79;21030;-83
2021/11/24 14:58:50;;;;;;;21.55;9.15;;;;;;;4.37;73.47;99681.78;4368336;80;21046;-82
2021/11/24 15:04:51;;;;;;;21.65;12.47;;;;;;;4.24;73.63;99673.81;4332134;80;21096;-82
2021/11/24 15:10:54;;;;;;;29.12;16.82;;;;;;;4.01;73.35;99679.11;4176582;81;23994;-83
2021/11/24 15:16:57;;;;;;;76.77;31.07;;;;;;;3.72;73.51;99674.23;4122523;84;21044;-81
2021/11/24 15:22:58;;;;;;;50.90;21.85;;;;;;;3.45;73.86;99682.55;4198710;84;21067;-81
2021/11/24 15:29:00;;;;;;;42.33;16.73;;;;;;;3.24;74.15;99674.17;4206701;83;21062;-82
2021/11/24 15:35:04;;;;;;;36.65;17.90;;;;;;;3.19;74.01;99673.52;4197012;83;21012;-82
2021/11/24 15:41:05;;;;;;;37.35;22.40;;;;;;;3.17;74.16;99667.06;4214041;83;21490;-82
2021/11/24 15:47:38;;;;;;;35.95;19.35;;;;;;;3.20;74.46;99664.28;4210560;82;21951;-82
2021/11/24 15:53:42;;;;;;;51.15;24.50;;;;;;;3.23;74.45;99657.47;4206129;83;21043;-82
2021/11/24 15:59:46;;;;;;;49.40;24.52;;;;;;;3.17;74.80;99654.89;4211499;83;21062;-82
2021/11/24 16:12:47;;;;;;;84.67;34.35;;;;;;;3.01;75.29;99658.28;4148872;84;21503;-81
2021/11/24 16:25:19;;;;;;;55.52;25.95;;;;;;;2.65;76.02;99650.80;4164686;84;21579;-83
2021/11/24 16:31:22;;;;;;;52.65;26.37;;;;;;;2.49;76.25;99638.77;4192983;82;21039;-82
2021/11/24 16:37:23;;;;;;;66.45;30.02;;;;;;;2.38;77.07;99638.19;4185416;82;21100;-83
2021/11/24 16:43:25;;;;;;;73.40;34.40;;;;;;;2.27;76.73;99631.41;4189657;82;21122;-82
2021/11/24 16:49:26;;;;;;;89.03;39.35;;;;;;;2.16;77.39;99620.59;4190305;82;21078;-82
2021/11/24 16:55:31;;;;;;;74.20;35.28;;;;;;;2.14;77.63;99612.56;4206132;82;21091;-82
2021/11/24 17:01:32;;;;;;;72.25;35.70;;;;;;;2.15;78.45;99620.89;4194415;82;20994;-82
2021/11/24 17:07:43;;;;;;;67.12;32.28;;;;;;;2.14;78.71;99611.20;4126245;82;21075;-82
2021/11/24 17:13:44;;;;;;;91.63;43.60;;;;;;;2.17;79.09;99614.11;4016336;86;22260;-82
2021/11/24 17:19:46;;;;;;;90.28;43.00;;;;;;;2.12;79.00;99610.16;4116100;84;21106;-82
2021/11/24 17:25:48;;;;;;;109.97;50.05;;;;;;;2.15;79.85;99616.30;4124826;84;21011;-82
2021/11/24 17:31:51;;;;;;;104.63;45.38;;;;;;;2.22;80.05;99619.40;4137594;84;21052;-81
2021/11/24 17:37:53;;;;;;;90.75;40.38;;;;;;;2.29;79.49;99614.36;4108799;85;21610;-83
2021/11/24 17:44:04;;;;;;;88.67;42.43;;;;;;;2.38;80.71;99609.81;4116908;85;21038;-82
2021/11/24 17:50:07;;;;;;;83.47;41.63;;;;;;;2.37;80.41;99606.06;4110312;85;21060;-82
2021/11/24 17:56:09;;;;;;;156.63;72.05;;;;;;;2.37;80.70;99602.82;4102631;83;21055;-82
2021/11/24 18:02:11;;;;;;;121.13;58.02;;;;;;;2.39;80.62;99599.81;4106338;85;21007;-82
2021/11/24 18:08:13;;;;;;;103.97;51.40;;;;;;;2.39;81.06;99599.27;4124753;84;21529;-82
2021/11/24 18:14:15;;;;;;;104.72;52.15;;;;;;;2.38;81.46;99595.52;4184708;82;21654;-82
2021/11/24 18:20:18;;;;;;;132.65;60.88;;;;;;;2.35;81.40;99598.27;4187681;82;21003;-82
2021/11/24 18:26:21;;;;;;;129.25;62.85;;;;;;;2.30;81.33;99584.88;4190134;82;21007;-81
2021/11/24 18:32:22;;;;;;;155.32;73.60;;;;;;;2.29;81.56;99583.29;4180042;82;21022;-82
2021/11/24 18:38:28;;;;;;;158.05;76.50;;;;;;;2.26;81.62;99581.20;4172443;82;20998;-81
2021/11/24 18:44:29;;;;;;;172.95;84.58;;;;;;;2.22;81.72;99582.13;4193366;82;21075;-83
2021/11/24 18:50:33;;;;;;;151.35;73.87;;;;;;;2.19;81.90;99573.28;4208774;82;21551;-82
2021/11/24 18:57:03;;;;;;;142.37;65.85;;;;;;;2.13;81.98;99564.48;4203820;82;21038;-81
2021/11/24 19:03:05;;;;;;;126.97;61.42;;;;;;;1.98;81.94;99564.84;4186741;82;21065;-82
2021/11/24 19:09:07;;;;;;;140.75;67.32;;;;;;;1.76;82.13;99559.41;4184923;82;21010;-81
2021/11/24 19:21:49;;;;;;;128.15;62.35;;;;;;;1.36;82.17;99546.22;4155972;83;21037;-81
2021/11/24 19:27:51;;;;;;;139.72;70.62;;;;;;;1.09;82.23;99536.81;4197768;83;20993;-81
2021/11/24 19:33:54;;;;;;;115.45;56.70;;;;;;;0.91;82.45;99536.34;4164761;83;21022;-81
2021/11/24 19:39:56;;;;;;;108.25;54.23;;;;;;;0.74;82.54;99528.03;4156223;84;21053;-82
2021/11/24 19:46:00;;;;;;;102.35;51.23;;;;;;;0.64;82.70;99519.34;4182198;82;20948;-81
2021/11/24 19:52:02;;;;;;;104.83;52.90;;;;;;;0.57;82.84;99510.84;4188301;82;21682;-81
2021/11/24 19:58:32;;;;;;;98.97;50.03;;;;;;;0.43;82.79;99510.83;4195495;82;21009;-81
2021/11/24 20:04:35;;;;;;;105.85;52.73;;;;;;;0.26;83.00;99499.00;4248352;81;21412;-81
2021/11/24 20:10:48;;;;;;;104.35;52.48;;;;;;;0.22;83.39;99498.01;4270416;82;20981;-80
2021/11/24 20:16:49;;;;;;;119.75;54.45;;;;;;;0.15;83.40;99493.00;4251254;82;21045;-80
2021/11/24 20:22:51;;;;;;;111.85;53.05;;;;;;;-0.01;83.37;99487.61;4292943;82;21098;-81
2021/11/24 20:28:53;;;;;;;95.70;47.48;;;;;;;-0.13;84.00;99484.58;4234529;82;21028;-81
2021/11/24 20:42:00;;;;;;;111.95;51.08;;;;;;;-0.33;83.75;99476.26;4212619;84;21577;-82
2021/11/24 20:48:01;;;;;;;101.20;47.90;;;;;;;-0.43;83.66;99483.69;4238946;82;21029;-82
2021/11/24 20:54:09;;;;;;;107.67;51.68;;;;;;;-0.53;84.71;99464.45;4233850;81;21047;-82
2021/11/24 21:00:15;;;;;;;116.03;56.08;;;;;;;-0.50;84.12;99477.89;4242575;81;21019;-84
2021/11/24 21:06:17;;;;;;;102.62;52.03;;;;;;;-0.72;84.01;99474.41;4217022;82;21054;-82
2021/11/24 21:12:19;;;;;;;125.10;59.63;;;;;;;-0.81;84.55;99476.68;4192926;83;21363;-82
2021/11/24 21:18:20;;;;;;;110.70;55.10;;;;;;;-0.87;84.67;99468.44;4157521;83;21583;-82
2021/11/24 21:24:27;;;;;;;108.47;53.03;;;;;;;-1.01;84.81;99460.82;4212251;82;21047;-81
2021/11/24 21:30:30;;;;;;;116.87;58.43;;;;;;;-1.12;84.50;99456.12;4194155;82;21015;-82
2021/11/24 21:36:33;;;;;;;123.70;56.53;;;;;;;-1.25;85.11;99447.97;4200067;82;21046;-82
2021/11/24 21:42:39;;;;;;;113.40;54.90;;;;;;;-1.21;85.43;99446.30;4198373;82;21021;-81
2021/11/24 21:48:41;;;;;;;116.30;55.93;;;;;;;-1.30;85.53;99446.13;4204195;82;21100;-81
2021/11/24 21:54:43;;;;;;;114.80;53.10;;;;;;;-1.39;85.22;99443.04;4184707;83;21059;-82
2021/11/24 22:00:46;;;;;;;130.93;61.93;;;;;;;-1.41;85.89;99443.33;4176179;83;21047;-81
2021/11/24 22:13:05;;;;;;;131.67;63.47;;;;;;;-1.45;85.57;99430.20;4128660;83;21072;-80
2021/11/24 22:19:07;;;;;;;157.37;69.83;;;;;;;-1.53;85.68;99426.80;4159418;82;21067;-80
2021/11/24 22:25:09;;;;;;;159.40;70.03;;;;;;;-1.62;85.93;99423.95;4146853;83;21070;-80
2021/11/24 22:31:20;;;;;;;178.63;76.93;;;;;;;-1.69;85.96;99424.81;4145338;84;21094;-81
2021/11/24 22:37:23;;;;;;;168.37;76.63;;;;;;;-1.75;85.84;99415.76;4160205;83;21543;-79
2021/11/24 22:43:25;;;;;;;168.13;69.87;;;;;;;-1.80;86.22;99405.87;4163691;83;20997;-80
2021/11/24 22:49:26;;;;;;;187.67;72.90;;;;;;;-1.78;86.27;99397.54;4155239;83;21058;-80
2021/11/24 22:55:30;;;;;;;159.47;65.77;;;;;;;-1.71;86.11;99385.94;4159238;83;20999;-80
2021/11/24 23:01:32;;;;;;;158.60;66.73;;;;;;;-1.83;86.04;99368.87;4162840;84;21028;-80
2021/11/24 23:07:39;;;;;;;170.20;70.30;;;;;;;-1.78;86.41;99362.66;4205286;82;21062;-80
2021/11/24 23:13:43;;;;;;;150.27;59.23;;;;;;;-1.79;86.43;99351.14;4239587;82;21046;-80
2021/11/24 23:19:44;;;;;;;158.37;64.63;;;;;;;-1.72;86.21;99348.89;4245525;82;21047;-81
2021/11/24 23:25:47;;;;;;;148.20;58.30;;;;;;;-1.80;86.27;99350.86;4257604;82;21029;-81
2021/11/24 23:31:50;;;;;;;148.83;59.33;;;;;;;-1.71;86.33;99345.67;4250804;82;21057;-81
2021/11/24 23:37:53;;;;;;;146.80;64.30;;;;;;;-1.94;86.14;99327.67;4244815;81;21057;-82
2021/11/24 23:43:54;;;;;;;131.57;52.13;;;;;;;-2.04;86.21;99323.25;4245240;82;22414;-81
2021/11/24 23:49:55;;;;;;;153.83;60.30;;;;;;;-2.03;86.71;99319.47;4238664;81;21040;-82
2021/11/24 23:55:57;;;;;;;160.90;60.87;;;;;;;-1.99;86.78;99304.95;4263118;81;21058;-81
